Weather observations for the past three days for
San Carlos Airport
Metric (Imperial)
Date Time (pdt) Wind (kph) Vis. (km) Weather Sky Cond. Temperature (ºC) Relative Humidity Wind Chill (°C) Heat Index (°C) Pressure Precipitation (cm)
Air Dwpt 6 hour altimeter (cm) sea level (mb) 1 hr 3 hr 6 hr
Max. Min.
07 18:59 W 24 16.09 Clear SKC 16 11 72% 76.28 0.0
07 17:47 W 26 16.09 Clear SKC 18 10 60% 76.28 0.0
07 15:47 N 17 G 31 16.09 Clear SKC 18 13 73% 76.33 0.0
07 14:47 N 15 16.09 Clear SKC 18 13 73% 76.38 0.0
07 13:47 N 20 16.09 Clear SKC 17 13 77% 76.43 0.0
07 12:47 N 17 16.09 Clear SKC 17 13 77% 76.45 0.0
07 11:45 N 15 16.09 A Few Clouds FEW019 17 12 73% 76.5 0.0
07 10:50 Vrbl 6 12.87 Overcast OVC014 15 12 82% 76.53 0.0
07 09:50 NE 7 11.27 Overcast OVC013 14 11 82% 76.53 0.0
07 07:47 NW 9 9.66 Fog/Mist OVC009 13 11 88% 76.5 0.0
07 06:55 NW 13 11.27 Overcast OVC008 13 11 88% 76.48 0.0
07 06:47 NW 15 8.05 Overcast OVC008 12 10 88% 76.48 0.0
07 06:35 NW 15 11.27 Overcast OVC008 13 11 88% 76.48 0.0
07 06:15 NW 13 14.48 Overcast OVC009 13 11 88% 76.45 0.0
07 05:55 NW 15 12.87 Overcast OVC009 13 11 88% 76.45 0.0
07 05:35 NW 13 14.48 Overcast OVC009 13 11 88% 76.43 0.0
07 05:15 NW 13 14.48 Overcast OVC010 13 11 88% 76.45 0.0
07 04:55 NW 13 14.48 Overcast OVC010 13 11 88% 76.45 0.0
07 04:35 NW 13 14.48 Overcast OVC010 13 11 88% 76.45 0.0
07 04:15 NW 11 14.48 Overcast OVC010 13 11 88% 76.45 0.0
07 03:55 NW 11 14.48 Overcast OVC010 13 11 88% 76.45 0.0
07 03:35 NW 15 14.48 Overcast OVC011 13 11 88% 76.45 0.0
07 03:15 NW 11 14.48 Overcast OVC011 13 12 94% 76.45 0.0
07 02:55 Calm 14.48 Overcast OVC012 13 12 94% 76.45 0.0
07 02:35 Calm 14.48 Overcast OVC011 13 12 94% 76.45 0.0
07 02:15 Calm 14.48 Overcast OVC012 13 12 94% 76.48 0.0
07 01:35 NW 17 14.48 Overcast OVC012 13 12 94% 76.48 0.0
07 01:15 NW 15 16.09 Overcast OVC012 13 12 94% 76.5 0.0
07 00:55 W 13 14.48 Overcast OVC012 14 12 88% 76.5 0.0
07 00:35 W 13 14.48 Overcast OVC012 14 12 88% 76.48 0.0
07 00:15 NW 9 14.48 Overcast OVC012 14 12 88% 76.5 0.0
06 23:55 NW 11 14.48 Overcast OVC013 14 12 88% 76.5 0.0
06 23:35 Calm 14.48 Mostly Cloudy BKN014 14 12 88% 76.5 0.0
06 23:15 Calm 14.48 Fair CLR 14 12 88% 76.5 0.0
06 22:55 NW 13 14.48 Fair CLR 14 12 88% 76.48 0.0
06 22:35 NW 13 14.48 Fair CLR 14 12 88% 76.48 0.0
06 22:15 NW 17 14.48 Fair CLR 14 12 88% 76.48 0.0
06 21:55 NW 20 14.48 Fair CLR 14 12 88% 76.48 0.0
06 21:35 NW 15 14.48 Fair CLR 15 12 82% 76.48 0.0
06 21:15 N 7 G 19 16.09 Fair CLR 14 12 88% 76.48 0.0
06 20:50 W 11 16.09 Clear SKC 16 11 72% 76.4 0.0
06 19:50 NW 20 16.09 Clear SKC 16 11 72% 76.4 0.0
06 18:50 W 20 16.09 Clear SKC 18 12 68% 76.4 0.0
06 17:50 W 22 16.09 Clear SKC 21 12 57% 76.38 0.0
06 16:50 NW 17 16.09 Clear SKC 22 12 53% 76.38 0.0
06 15:50 NW 20 16.09 Clear SKC 22 12 53% 76.4 0.0
06 13:50 N 11 16.09 Clear SKC 21 12 57% 76.5 0.0
06 12:50 NW 9 16.09 Clear SKC 20 12 60% 76.53 0.0
06 11:47 N 13 16.09 Clear SKC 18 12 68% 76.58 0.0
06 10:47 N 9 16.09 Partly Cloudy SCT023 18 11 64% 76.61 0.0
06 08:47 NW 9 16.09 Overcast OVC022 15 10 72% 76.61 0.0
06 07:47 NW 13 16.09 Overcast OVC022 14 11 82% 76.58 0.0
06 06:55 Calm 14.48 Overcast OVC021 14 11 82% 76.56 0.0
06 06:47 NW 13 16.09 Overcast OVC022 14 11 82% 76.56 0.0
06 06:35 Calm 14.48 Overcast OVC022 14 11 82% 76.53 0.0
06 06:15 NW 9 14.48 Overcast OVC022 14 11 82% 76.5 0.0
06 05:55 Calm 16.09 Overcast OVC022 14 11 82% 76.5 0.0
06 05:35 Calm 16.09 Overcast OVC024 14 11 82% 76.5 0.0
06 05:15 Calm 14.48 Partly Cloudy SCT024 13 11 88% 76.5 0.0
06 04:55 Calm 16.09 Fair CLR 13 11 88% 76.5 0.0
06 04:35 Calm 14.48 A Few Clouds FEW026 13 11 88% 76.48 0.0
06 04:15 Calm 16.09 Partly Cloudy SCT026 13 11 88% 76.48 0.0
06 03:55 Calm 14.48 Fair CLR 14 11 82% 76.45 0.0
06 03:35 Calm 16.09 A Few Clouds FEW020 14 11 82% 76.45 0.0
06 03:15 Calm 16.09 Partly Cloudy SCT020 14 11 82% 76.45 0.0
06 02:55 Calm 16.09 Partly Cloudy SCT021 14 11 82% 76.45 0.0
06 02:35 Calm 14.48 Partly Cloudy FEW018 FEW023 SCT035 14 11 82% 76.45 0.0
06 02:15 Calm 16.09 Overcast OVC035 14 11 82% 76.45 0.0
06 01:55 Calm 14.48 Overcast OVC035 15 12 82% 76.45 0.0
06 01:35 NW 9 16.09 Overcast OVC035 15 12 82% 76.45 0.0
06 01:15 Calm 16.09 Overcast OVC035 15 12 82% 76.45 0.0
06 00:55 Calm 16.09 Overcast OVC035 15 12 82% 76.45 0.0
06 00:35 NW 7 14.48 Overcast OVC035 15 12 82% 76.43 0.0
06 00:15 NW 11 16.09 Overcast OVC035 15 12 82% 76.43 0.0
05 23:55 NW 7 16.09 Overcast OVC035 15 12 82% 76.43 0.0
05 23:35 N 7 16.09 Overcast OVC035 14 12 88% 76.4 0.0
05 23:15 Calm 16.09 Overcast OVC036 14 12 88% 76.4 0.0
05 22:55 Calm 16.09 Overcast OVC037 15 11 77% 76.4 0.0
05 22:35 Calm 16.09 Overcast OVC037 15 11 77% 76.38 0.0
05 22:15 Calm 16.09 Overcast OVC037 15 12 82% 76.38 0.0
05 21:55 Vrbl 7 16.09 Overcast OVC037 15 11 77% 76.35 0.0
05 21:35 NW 9 16.09 Overcast OVC038 15 11 77% 76.35 0.0
05 21:15 NW 7 16.09 Overcast OVC039 15 11 77% 76.33 0.0
05 20:47 W 11 16.09 Overcast OVC039 15 10 72% 76.33 0.0
05 19:47 W 20 16.09 Overcast OVC035 16 10 68% 76.25 0.0
05 17:47 W 20 16.09 Overcast OVC039 17 10 64% 76.23 0.0
05 16:47 SW 24 16.09 Overcast OVC032 17 10 64% 76.2 0.0
05 14:47 SW 15 16.09 Overcast OVC030 18 10 60% 76.25 0.0
05 13:47 SW 15 16.09 Overcast OVC030 17 10 64% 76.25 0.0
05 12:50 W 15 16.09 Overcast OVC029 17 8 56% 76.25 0.0
05 11:47 NW 13 16.09 Mostly Cloudy SCT021 BKN027 17 10 64% 76.25 0.0
05 10:47 W 17 14.48 Overcast BKN021 OVC026 14 11 82% 76.25 0.0
05 09:47 W 15 9.66 Overcast with Haze OVC020 13 11 88% 76.23 0.0
05 08:50 W 9 16.09 Overcast BKN030 OVC045 13 10 82% 76.23 0.0
05 07:50 SW 7 16.09 Overcast FEW025 OVC055 13 10 82% 76.17 0.0
05 06:55 Calm 14.48 Overcast BKN050 OVC055 13 10 82% 76.15 0.0
05 06:50 Calm 16.09 Overcast OVC047 12 9 82% 76.15 0.0
05 06:35 Calm 14.48 Overcast OVC047 13 10 82% 76.15 0.0
05 06:15 Calm 14.48 Overcast OVC043 12 11 94% 76.12 0.0
05 05:55 Calm 14.48 Overcast OVC041 13 11 88% 76.15 0.0
05 05:35 Calm 14.48 Overcast BKN046 OVC055 12 11 94% 76.15 0.0
05 05:15 Calm 14.48 Overcast OVC060 12 11 94% 76.15 0.0
05 04:55 Calm 9.66 Fog/Mist FEW032 SCT037 OVC060 12 11 94% 76.15 0.0
05 04:35 Calm 12.87 Overcast BKN032 BKN043 OVC060 13 10 82% 76.15 0.0
05 04:15 Calm 16.09 Overcast FEW035 FEW043 OVC060 13 11 88% 76.15 0.0
05 03:55 Calm 14.48 Overcast OVC060 12 11 94% 76.15 0.0
05 03:35 Calm 12.87 Overcast OVC065 12 10 88% 76.15 0.0
05 03:15 Calm 14.48 Overcast OVC070 12 10 88% 76.15 0.0
05 02:55 Calm 14.48 Overcast FEW060 OVC070 13 10 82% 76.15 0.0
05 02:35 Calm 14.48 Overcast OVC070 13 10 82% 76.17 0.0
05 02:15 Calm 14.48 Overcast FEW055 BKN070 OVC090 13 10 82% 76.17 0.0
05 01:55 Calm 11.27 Overcast FEW060 OVC080 13 10 82% 76.2 0.0
05 01:35 Calm 16.09 Overcast OVC080 13 10 82% 76.2 0.0
05 01:15 Calm 14.48 Overcast FEW041 BKN090 OVC120 12 10 88% 76.2 0.0
05 00:55 Calm 11.27 Overcast SCT041 BKN065 OVC120 12 10 88% 76.23 0.0
05 00:35 Calm 12.87 Overcast SCT040 SCT065 OVC075 13 9 77% 76.23 0.0
05 00:15 W 11 14.48 Overcast SCT065 OVC080 13 9 77% 76.23 0.0
04 23:55 NW 17 14.48 Overcast BKN080 OVC090 13 8 72% 76.2 0.0
04 23:35 NW 13 16.09 Overcast FEW048 BKN080 OVC090 13 8 72% 76.2 0.0
04 23:15 Calm 14.48 Overcast FEW050 OVC100 13 8 72% 76.17 0.0
04 22:55 Calm 16.09 Overcast OVC110 13 8 72% 76.17 0.0
04 22:35 NW 11 G 22 14.48 Mostly Cloudy BKN110 14 8 67% 76.2 0.0
04 22:15 NW 7 G 19 16.09 Partly Cloudy SCT100 14 9 72% 76.2 0.0
04 21:55 NW 20 14.48 Partly Cloudy FEW100 SCT120 14 9 72% 76.23 0.0
04 21:35 NW 15 16.09 Mostly Cloudy BKN022 14 10 77% 76.23 0.0
04 21:15 Calm 16.09 Overcast OVC022 14 10 77% 76.17 0.0
04 20:47 W 15 16.09 Fair CLR 14 9 72% 76.17 0.0
Date Time (pdt) Wind (kph) Vis. (km) Weather Sky Cond. Air Dwpt Max. Min. Relative Humidity Wind Chill (°C) Heat Index (°C) altimeter (cm) sea level (mb) 1 hr 3 hr 6 hr
6 hour
Temperature (ºC) Pressure Precipitation (cm)